Welcome!

Visit our other weather sites:

Template documentation
and downloads

And another site



from: Jan 25 2021 9:10 pm until: Jan 26 2021 3:00 am Winter Storm Warning level: Moderate
Possible threat to life or property - Responsive action SHOULD be taken soon (within next hour)

Nearby METAR Reports

   
KAVP - Albrightsville, PA
Updated: Jan 25 2021 8:54 pm
NOT Current
Clear  
Clear  
   Wind: Calm
Wind: Calm
Temperature: 30.2°F
Dew Point: 15.8°F
Humidity: 55%
Barometer: 30.05 inHg
Clouds: Clear
Visibility: 10 mi
Cloud details: Clear
KAVP 260254Z 00000KT 10SM CLR M01/M09 A3005 RMK AO2 SLP184 T10061089 53004
KIWA - Apache Junction, AZ
Updated: Jan 25 2021 8:50 pm
NOT Current
Light Rain, Overcast  
Light Rain, Overcast  
   Wind: SE 8.1 mph
Wind: SE 8.1 mph
Temperature: 42.8°F
Wind Chill: 37.4°F
Dew Point: 39.2°F
Humidity: 87%
Barometer: 29.76 inHg
Clouds: Overcast
Visibility: 10 mi
Cloud details: Partly Cloudy 518 m,
Mostly Cloudy 884 m,
Overcast 1524 m
KIWA 260250Z 14007KT 10SM -RA SCT017 BKN029 OVC050 06/04 A2976
KPKB - Blue Rock, OH
Updated: Jan 25 2021 8:53 pm
NOT Current
Overcast  
Overcast  
   Wind: NNE 4.6 mph
Wind: NNE 4.6 mph
Temperature: 35.6°F
Wind Chill: 32°F
Dew Point: 33.8°F
Humidity: 93%
Barometer: 29.8 inHg
Clouds: Overcast
Visibility: 7 mi
Cloud details: Overcast 213 m
KPKB 260253Z 03004KT 7SM OVC007 02/01 A2980 RMK AO2 SLP099 T00170006 55017
KHVN - Branford, CT
Updated: Jan 25 2021 8:53 pm
NOT Current
Clear  
Clear  
   Wind: North 11.5 mph
Wind: North 11.5 mph
Temperature: 32°F
Wind Chill: 23°F
Dew Point: 12.2°F
Humidity: 44%
Barometer: 30.1 inHg
Clouds: Clear
Visibility: 10 mi
Cloud details: Clear
KHVN 260253Z 35010KT 10SM CLR 00/M11 A3010 RMK AO2 SLP191 T00001106 53000
KPHX - Carefree, AZ
Updated: Jan 25 2021 8:51 pm
NOT Current
Light Rain, Overcast  
Light Rain, Overcast  
   Wind: ESE 6.9 mph
Wind: ESE 6.9 mph
Temperature: 42.8°F
Wind Chill: 39.2°F
Dew Point: 39.2°F
Humidity: 87%
Barometer: 29.72 inHg
Clouds: Overcast
Visibility: 10 mi
Cloud details: Mostly Cloudy 1158 m,
Mostly Cloudy 1829 m,
Overcast 3353 m
KPHX 260251Z 12006KT 10SM -RA BKN038 BKN060 OVC110 06/04 A2972 RMK AO2 SLP061 P0002 60002 T00610039 50005 $
 

Script developed by  Saratoga-weather.org Adapted for the template by  Weerstation Leuven